Indian Creek, Colorado
Current Conditions -  °F | °C
As of 9:54 PM on Monday 26 Jan 2015 (Local Time) from KTAD Reporting Station
Clear Clear  
Wind Chill: 34°   Ceiling: Unl
Heat Index: 43°   Visibility: 10mi
Dew Point: 27°   Wind: 20mph
Humidity: 53%   Direction: 230°SW
Pressure: 30.29"   Gusts: NA
Location:  37.5011°N, 105.046°W
Report Text: KTAD 270454Z AUTO 23017KT 10SM CLR 06/M03 A3029 RMK AO2 SLP231 T00611028
Loading
Personal Weather Stations






























Interactive Weather Map New forecast layout! Learn more

10-Day Weather Forecast

Advertisements
Track Severe Weather on mobile